Time;durP1;ratioP1;P1;durP2;ratioP2;P2;SDS_P1;SDS_P2;PMS_P1;PMS_P2;Temp;Humidity;BMP_temperature;BMP_pressure;BME280_temperature;BME280_humidity;BME280_pressure;Samples;Min_cycle;Max_cycle;Signal;HPM_P1;HPM_P2
2021/08/20 00:02:07;;;;;;;10.65;6.63;;;;;;;;;;4999592;28;20275;-88
2021/08/20 00:04:33;;;;;;;9.13;6.40;;;16.90;99.90;;;;;;5033669;28;20185;-89
2021/08/20 00:06:59;;;;;;;19.38;7.20;;;;;;;;;;4999524;28;20545;-89
2021/08/20 00:09:28;;;;;;;11.02;6.82;;;16.90;99.90;;;;;;5033395;28;20252;-89
2021/08/20 00:11:54;;;;;;;14.45;6.63;;;17.40;99.90;;;;;;5000057;28;20180;-89
2021/08/20 00:14:20;;;;;;;8.38;6.35;;;16.90;99.90;;;;;;5015423;28;20667;-89
2021/08/20 00:16:46;;;;;;;12.27;6.63;;;16.60;99.90;;;;;;4999285;28;20192;-89
2021/08/20 00:19:12;;;;;;;9.35;6.35;;;;;;;;;;5015658;28;20534;-88
2021/08/20 00:21:39;;;;;;;9.05;6.40;;;17.10;99.90;;;;;;5015568;28;20275;-89
2021/08/20 00:24:06;;;;;;;9.95;6.95;;;;;;;;;;5033391;28;20226;-88
2021/08/20 00:26:32;;;;;;;8.98;6.13;;;;;;;;;;5033164;28;20180;-89
2021/08/20 00:28:58;;;;;;;7.32;6.25;;;;;;;;;;5015838;28;20176;-89
2021/08/20 00:31:24;;;;;;;10.85;6.35;;;;;;;;;;5016510;28;20792;-89
2021/08/20 00:33:50;;;;;;;14.73;6.32;;;;;;;;;;5020664;28;20204;-90
2021/08/20 00:36:16;;;;;;;8.52;6.45;;;;;;;;;;5024036;28;20192;-87
2021/08/20 00:38:42;;;;;;;11.90;6.70;;;;;;;;;;5004145;28;20192;-89
2021/08/20 00:41:12;;;;;;;8.15;6.78;;;16.90;99.90;;;;;;5006177;28;20189;-89
2021/08/20 00:43:43;;;;;;;12.30;7.00;;;16.60;99.90;;;;;;5035644;28;20196;-90
2021/08/20 00:46:09;;;;;;;9.60;6.40;;;16.50;99.90;;;;;;5017082;28;20188;-89
2021/08/20 00:48:35;;;;;;;9.20;6.32;;;;;;;;;;5015432;28;20172;-89
2021/08/20 00:51:05;;;;;;;8.73;6.43;;;16.60;99.90;;;;;;5015700;28;20645;-88
2021/08/20 00:53:33;;;;;;;9.98;6.90;;;16.90;99.90;;;;;;5036943;28;20181;-89
2021/08/20 00:56:00;;;;;;;13.20;6.60;;;16.90;99.90;;;;;;5019802;28;20204;-88
2021/08/20 00:58:29;;;;;;;12.63;7.35;;;16.40;99.90;;;;;;5019018;28;20196;-89
2021/08/20 01:00:56;;;;;;;9.35;6.43;;;16.90;99.90;;;;;;5019064;28;20525;-89
2021/08/20 01:03:22;;;;;;;10.93;7.13;;;;;;;;;;5018912;28;20263;-89
2021/08/20 01:05:50;;;;;;;9.45;6.75;;;17.00;99.90;;;;;;5036565;28;20216;-89
2021/08/20 01:08:16;;;;;;;14.80;7.00;;;;;;;;;;5018966;28;20250;-88
2021/08/20 01:10:43;;;;;;;12.60;6.75;;;16.90;99.90;;;;;;5018658;28;20184;-89
2021/08/20 01:13:10;;;;;;;15.40;7.32;;;16.90;99.90;;;;;;5002778;28;20234;-89
2021/08/20 01:15:36;;;;;;;10.73;6.72;;;16.70;99.90;;;;;;5002284;28;20216;-89
2021/08/20 01:18:02;;;;;;;10.10;6.55;;;;;;;;;;5018850;28;20276;-89
2021/08/20 01:20:28;;;;;;;10.50;6.95;;;;;;;;;;5018678;28;20181;-89
2021/08/20 01:22:54;;;;;;;9.57;6.55;;;;;;;;;;5019081;28;20259;-89
2021/08/20 01:25:19;;;;;;;13.50;7.28;;;16.60;99.90;;;;;;5018606;28;20185;-88
2021/08/20 01:27:45;;;;;;;9.45;6.50;;;16.40;99.90;;;;;;5036506;28;20652;-89
2021/08/20 01:30:12;;;;;;;10.40;6.78;;;;;;;;;;5018711;28;20247;-89
2021/08/20 01:32:38;;;;;;;10.43;7.13;;;;;;;;;;5018323;28;20637;-90
2021/08/20 01:35:05;;;;;;;10.68;7.30;;;;;;;;;;5038791;28;20200;-90
2021/08/20 01:37:31;;;;;;;10.75;6.57;;;;;;;;;;5023398;28;20192;-90
2021/08/20 01:39:57;;;;;;;13.23;7.32;;;;;;;;;;5023638;28;20208;-89
2021/08/20 01:42:23;;;;;;;10.88;7.38;;;;;;;;;;5026727;28;20191;-90
2021/08/20 01:44:49;;;;;;;10.75;7.53;;;;;;;;;;5028381;28;20181;-89
2021/08/20 01:47:15;;;;;;;9.25;6.50;;;;;;;;;;5029952;28;20195;-90
2021/08/20 01:49:42;;;;;;;9.90;6.85;;;16.90;99.90;;;;;;5036991;28;20176;-89
2021/08/20 01:52:09;;;;;;;13.98;6.82;;;16.90;99.90;;;;;;5036073;28;20180;-90
2021/08/20 01:54:35;;;;;;;9.15;7.07;;;16.90;99.90;;;;;;5018179;28;20181;-90
2021/08/20 01:57:01;;;;;;;9.45;6.88;;;16.90;99.90;;;;;;5017986;28;20706;-89
2021/08/20 01:59:27;;;;;;;9.75;6.90;;;16.80;99.90;;;;;;5001789;28;20238;-90
2021/08/20 02:01:53;;;;;;;11.20;7.38;;;16.80;99.90;;;;;;5018456;28;20184;-90
2021/08/20 02:04:19;;;;;;;9.13;7.00;;;;;;;;;;5017955;28;20181;-90
2021/08/20 02:06:45;;;;;;;12.43;7.20;;;;;;;;;;5017848;28;20192;-90
2021/08/20 02:09:11;;;;;;;13.25;7.25;;;;;;;;;;5017866;28;20633;-90
2021/08/20 02:11:40;;;;;;;12.25;7.40;;;;;;;;;;5035337;28;20222;-89
2021/08/20 02:14:06;;;;;;;10.85;7.45;;;;;;;;;;5018748;28;20188;-89
2021/08/20 02:16:32;;;;;;;16.40;7.50;;;;;;;;;;5017477;28;20209;-89
2021/08/20 02:18:58;;;;;;;92.80;12.55;;;;;;;;;;5035476;28;20672;-90
2021/08/20 02:21:23;;;;;;;258.45;23.08;;;16.70;99.90;;;;;;5017929;28;20184;-89
2021/08/20 02:23:49;;;;;;;319.30;28.52;;;16.70;99.90;;;;;;5017873;28;20188;-90
2021/08/20 02:26:14;;;;;;;151.73;18.25;;;16.70;99.90;;;;;;5036136;28;20183;-90
2021/08/20 02:28:41;;;;;;;77.18;11.27;;;;;;;;;;5017474;28;20192;-91
2021/08/20 02:31:06;;;;;;;51.78;10.23;;;16.70;99.90;;;;;;5017733;28;20254;-90
2021/08/20 02:33:34;;;;;;;40.50;9.23;;;;;;;;;;5017466;28;20634;-90
2021/08/20 02:36:02;;;;;;;27.60;9.90;;;16.60;99.90;;;;;;5017575;28;20209;-90
2021/08/20 02:38:29;;;;;;;26.83;9.25;;;16.80;99.90;;;;;;5017857;28;20176;-90
2021/08/20 02:40:54;;;;;;;21.77;8.52;;;16.50;99.90;;;;;;5035134;28;20644;-90
2021/08/20 02:43:20;;;;;;;11.85;8.00;;;16.50;99.90;;;;;;5034729;28;20185;-90
2021/08/20 02:45:46;;;;;;;11.77;8.85;;;16.50;99.90;;;;;;5017287;28;20191;-90
2021/08/20 02:48:12;;;;;;;23.40;8.90;;;16.40;99.90;;;;;;5017311;28;20200;-90
2021/08/20 02:50:38;;;;;;;21.27;9.38;;;;;;;;;;5035031;28;20208;-91
2021/08/20 02:53:03;;;;;;;19.58;8.93;;;16.30;99.90;;;;;;5017131;28;20577;-90
2021/08/20 02:55:29;;;;;;;23.75;9.40;;;16.30;99.90;;;;;;5016964;28;20214;-90
2021/08/20 02:57:55;;;;;;;20.45;8.45;;;;;;;;;;5034901;28;20792;-90
2021/08/20 03:00:21;;;;;;;15.82;8.68;;;16.20;99.90;;;;;;5034920;28;20227;-91
2021/08/20 03:02:46;;;;;;;17.67;8.80;;;16.20;99.90;;;;;;5000429;28;20180;-90
2021/08/20 03:05:12;;;;;;;14.98;9.38;;;;;;;;;;5017146;28;20253;-90
2021/08/20 03:07:38;;;;;;;19.77;9.15;;;16.10;99.90;;;;;;5034721;28;20204;-91
2021/08/20 03:10:04;;;;;;;17.30;8.70;;;16.10;99.90;;;;;;5034745;28;20707;-90
2021/08/20 03:12:30;;;;;;;15.23;9.23;;;16.00;99.90;;;;;;5016741;28;20173;-90
2021/08/20 03:14:56;;;;;;;13.18;9.02;;;16.00;99.90;;;;;;5016652;28;20676;-90
2021/08/20 03:17:22;;;;;;;15.48;8.95;;;;;;;;;;5016865;28;20184;-90
2021/08/20 03:19:47;;;;;;;18.15;10.15;;;16.00;99.90;;;;;;5016714;28;20693;-91
2021/08/20 03:22:13;;;;;;;22.45;8.65;;;;;;;;;;5016720;28;20180;-90
2021/08/20 03:24:39;;;;;;;12.90;9.23;;;16.00;99.90;;;;;;5000338;28;20268;-90
2021/08/20 03:27:05;;;;;;;12.50;8.82;;;15.90;99.90;;;;;;5016687;28;20203;-92
2021/08/20 03:29:31;;;;;;;13.38;8.73;;;15.90;99.90;;;;;;5000226;28;20637;-89
2021/08/20 03:31:56;;;;;;;14.40;8.60;;;15.90;99.90;;;;;;5034332;28;20230;-90
2021/08/20 03:34:22;;;;;;;13.57;9.43;;;15.90;99.90;;;;;;5000073;28;20184;-90
2021/08/20 03:36:47;;;;;;;14.88;9.60;;;15.90;99.90;;;;;;5000033;28;20184;-89
2021/08/20 03:39:13;;;;;;;15.60;10.05;;;15.80;99.90;;;;;;4999851;28;20184;-90
2021/08/20 03:41:39;;;;;;;15.38;9.27;;;15.80;99.90;;;;;;5000344;28;20183;-90
2021/08/20 03:44:05;;;;;;;15.68;9.50;;;15.80;99.90;;;;;;5016839;28;20181;-90
2021/08/20 03:46:30;;;;;;;13.27;9.23;;;15.70;99.90;;;;;;5016382;28;20187;-90
2021/08/20 03:48:56;;;;;;;15.38;10.25;;;15.70;99.90;;;;;;5016434;28;20629;-88
2021/08/20 03:51:22;;;;;;;15.93;9.02;;;15.70;99.90;;;;;;5015995;28;20184;-90
2021/08/20 03:53:47;;;;;;;19.45;9.73;;;15.70;99.90;;;;;;5016073;28;20180;-89
2021/08/20 03:56:13;;;;;;;13.43;10.00;;;15.70;99.90;;;;;;4999663;28;20315;-89
2021/08/20 03:58:39;;;;;;;14.10;9.02;;;15.60;99.90;;;;;;4999579;28;20660;-90
2021/08/20 04:01:08;;;;;;;18.33;10.30;;;15.60;99.90;;;;;;5015971;28;20270;-89
2021/08/20 04:03:33;;;;;;;14.38;9.98;;;15.60;99.90;;;;;;5015875;28;20180;-88
2021/08/20 04:05:59;;;;;;;16.48;10.15;;;15.50;99.90;;;;;;4999790;28;20513;-89
2021/08/20 04:08:25;;;;;;;21.45;9.70;;;15.60;99.90;;;;;;5015961;28;20255;-90
2021/08/20 04:10:51;;;;;;;18.38;9.52;;;;;;;;;;5015643;28;20180;-90
2021/08/20 04:13:17;;;;;;;17.42;9.90;;;15.60;99.90;;;;;;5015933;28;20546;-90
2021/08/20 04:15:43;;;;;;;16.98;9.43;;;13.40;99.90;;;;;;5016077;28;20196;-90
2021/08/20 04:18:09;;;;;;;18.52;10.55;;;;;;;;;;5018184;28;20196;-90
2021/08/20 04:20:35;;;;;;;18.65;9.45;;;15.60;99.90;;;;;;5036375;28;20223;-89
2021/08/20 04:23:01;;;;;;;15.48;10.27;;;15.60;99.90;;;;;;5033972;28;20668;-89
2021/08/20 04:25:28;;;;;;;23.02;10.85;;;15.70;99.90;;;;;;5015311;28;20177;-91
2021/08/20 04:27:53;;;;;;;13.85;10.38;;;15.60;99.90;;;;;;5018367;28;20184;-90
2021/08/20 04:30:21;;;;;;;15.05;10.55;;;15.70;99.90;;;;;;5015832;28;20578;-90
2021/08/20 04:32:47;;;;;;;25.70;9.98;;;15.70;99.90;;;;;;5015788;28;20207;-91
2021/08/20 04:35:13;;;;;;;21.98;9.85;;;15.80;99.90;;;;;;5016499;28;20280;-91
2021/08/20 04:37:39;;;;;;;20.05;10.50;;;15.80;99.90;;;;;;5015996;28;20183;-90
2021/08/20 04:40:06;;;;;;;26.80;10.77;;;15.80;99.90;;;;;;5016387;28;20264;-90
2021/08/20 04:42:31;;;;;;;23.02;11.27;;;15.80;99.90;;;;;;5032539;28;20646;-90
2021/08/20 04:44:57;;;;;;;26.88;10.82;;;15.90;99.90;;;;;;5016536;28;20239;-91
2021/08/20 04:47:23;;;;;;;23.30;10.65;;;15.90;99.90;;;;;;5016182;28;20268;-90
2021/08/20 04:49:48;;;;;;;22.20;11.23;;;15.80;99.90;;;;;;5016651;28;20177;-90
2021/08/20 04:52:15;;;;;;;24.92;10.95;;;;;;;;;;5016644;28;20181;-89
2021/08/20 04:54:41;;;;;;;18.05;10.55;;;16.00;99.90;;;;;;4998561;28;20634;-90
2021/08/20 04:57:07;;;;;;;30.77;10.25;;;16.00;99.90;;;;;;5015923;28;20177;-90
2021/08/20 04:59:34;;;;;;;19.05;9.98;;;16.10;99.90;;;;;;5031630;28;20589;-89
2021/08/20 05:02:00;;;;;;;17.20;10.23;;;16.20;99.90;;;;;;5015197;28;20651;-89
2021/08/20 05:04:26;;;;;;;18.80;10.10;;;;;;;;;;5016368;28;20177;-89
2021/08/20 05:06:51;;;;;;;14.13;10.02;;;16.30;99.90;;;;;;5015415;28;20181;-90
2021/08/20 05:09:17;;;;;;;18.63;11.15;;;;;;;;;;5014959;28;20181;-90
2021/08/20 05:11:43;;;;;;;14.95;9.85;;;16.50;99.90;;;;;;5014949;28;20208;-90
2021/08/20 05:14:09;;;;;;;16.27;9.05;;;16.60;99.90;;;;;;5015889;28;20174;-90
2021/08/20 05:16:34;;;;;;;16.95;10.40;;;16.60;99.90;;;;;;5015743;28;20553;-91
2021/08/20 05:19:00;;;;;;;17.50;10.52;;;;;;;;;;4998564;28;20271;-92
2021/08/20 05:21:26;;;;;;;14.23;10.35;;;16.50;99.90;;;;;;5014762;28;20185;-89
2021/08/20 05:23:52;;;;;;;19.77;10.30;;;;;;;;;;5014743;28;20653;-89
2021/08/20 05:26:18;;;;;;;16.77;10.27;;;;;;;;;;5014594;28;20189;-90
2021/08/20 05:28:44;;;;;;;21.33;10.63;;;16.60;99.90;;;;;;5014371;28;20177;-90
2021/08/20 05:31:09;;;;;;;14.98;10.88;;;16.60;99.90;;;;;;5030371;28;20307;-90
2021/08/20 05:33:35;;;;;;;14.93;10.32;;;16.70;99.90;;;;;;5014482;28;20177;-92
2021/08/20 05:36:01;;;;;;;17.75;10.25;;;16.70;99.90;;;;;;5014175;28;20224;-88
2021/08/20 05:38:27;;;;;;;18.13;10.35;;;;;;;;;;5013877;28;20276;-91
2021/08/20 05:40:52;;;;;;;14.38;10.10;;;17.00;99.90;;;;;;5014860;28;20657;-92
2021/08/20 05:43:18;;;;;;;16.20;10.52;;;17.10;99.90;;;;;;4999066;28;20272;-90
2021/08/20 05:45:44;;;;;;;12.93;10.20;;;;;;;;;;4998665;28;20308;-89
2021/08/20 05:48:11;;;;;;;17.98;9.93;;;17.30;99.90;;;;;;5015840;28;20173;-89
2021/08/20 05:50:37;;;;;;;21.27;10.65;;;17.40;99.90;;;;;;5016061;28;20641;-88
2021/08/20 05:53:03;;;;;;;18.13;10.02;;;17.50;99.90;;;;;;5014065;28;20215;-90
2021/08/20 05:55:31;;;;;;;15.38;11.02;;;17.60;99.90;;;;;;5014456;28;20579;-90
2021/08/20 05:57:57;;;;;;;21.30;10.45;;;17.70;99.90;;;;;;5014041;28;20181;-90
2021/08/20 06:00:23;;;;;;;18.02;10.95;;;17.80;99.90;;;;;;5014156;28;20577;-89
2021/08/20 06:02:50;;;;;;;13.27;9.75;;;;;;;;;;5014009;28;20184;-90
2021/08/20 06:05:15;;;;;;;16.52;10.48;;;18.00;99.90;;;;;;5030733;28;20196;-90
2021/08/20 06:07:41;;;;;;;16.20;10.32;;;18.00;99.90;;;;;;4998565;28;20260;-89
2021/08/20 06:10:08;;;;;;;17.15;9.63;;;18.20;99.90;;;;;;5014034;28;20752;-89
2021/08/20 06:12:34;;;;;;;15.60;9.57;;;18.20;99.90;;;;;;5014007;28;20185;-89
2021/08/20 06:15:00;;;;;;;13.77;9.68;;;18.40;99.90;;;;;;5015311;28;20201;-90
2021/08/20 06:17:26;;;;;;;15.88;9.20;;;18.40;99.90;;;;;;5031464;28;20185;-89
2021/08/20 06:19:52;;;;;;;13.82;8.98;;;18.50;99.90;;;;;;5014354;28;20651;-89
2021/08/20 06:22:18;;;;;;;11.10;8.85;;;;;;;;;;5014915;28;20185;-89
2021/08/20 06:24:44;;;;;;;11.65;8.23;;;18.70;99.90;;;;;;5013911;28;20227;-89
2021/08/20 06:27:09;;;;;;;20.77;9.23;;;18.80;99.90;;;;;;4997647;28;20582;-89
2021/08/20 06:29:35;;;;;;;12.32;8.25;;;18.80;99.90;;;;;;5030748;28;20207;-89
2021/08/20 06:32:01;;;;;;;10.18;7.90;;;18.90;99.90;;;;;;5016911;28;20218;-87
2021/08/20 06:34:27;;;;;;;13.27;8.10;;;19.00;99.90;;;;;;5034342;28;20259;-87
2021/08/20 06:36:52;;;;;;;11.15;8.63;;;19.00;99.90;;;;;;5000373;28;20342;-87
2021/08/20 06:39:18;;;;;;;12.07;8.77;;;19.20;99.90;;;;;;5000446;28;20629;-88
2021/08/20 06:41:43;;;;;;;13.57;9.07;;;19.20;99.90;;;;;;5016632;28;20563;-88
2021/08/20 06:44:09;;;;;;;11.57;8.10;;;19.20;99.90;;;;;;5016681;28;20629;-86
2021/08/20 06:46:35;;;;;;;13.93;8.02;;;19.20;99.90;;;;;;5000451;28;20215;-88
2021/08/20 06:49:01;;;;;;;18.02;8.38;;;19.10;99.90;;;;;;4999345;28;20813;-86
2021/08/20 06:51:27;;;;;;;9.70;7.40;;;19.10;99.90;;;;;;5000170;28;20203;-88
2021/08/20 06:53:53;;;;;;;12.85;7.90;;;;;;;;;;5034621;28;20668;-88
2021/08/20 06:56:19;;;;;;;8.90;6.25;;;19.40;99.90;;;;;;5034050;28;20208;-86
2021/08/20 06:58:45;;;;;;;11.35;7.55;;;19.30;99.90;;;;;;5018124;28;20727;-86
2021/08/20 07:01:10;;;;;;;9.90;7.40;;;19.40;99.90;;;;;;5034271;28;20625;-85
2021/08/20 07:03:36;;;;;;;12.15;7.25;;;19.50;99.90;;;;;;5017113;28;20184;-86
2021/08/20 07:06:02;;;;;;;10.43;7.25;;;19.50;99.90;;;;;;5033874;28;20172;-87
2021/08/20 07:08:27;;;;;;;9.57;7.63;;;19.60;99.90;;;;;;5016827;28;20180;-86
2021/08/20 07:10:54;;;;;;;9.85;6.95;;;19.70;99.90;;;;;;5016553;28;20180;-86
2021/08/20 07:13:21;;;;;;;7.63;6.13;;;19.70;99.90;;;;;;5017396;28;20176;-86
2021/08/20 07:15:47;;;;;;;9.35;7.03;;;19.80;99.90;;;;;;5015990;28;20307;-85
2021/08/20 07:18:12;;;;;;;10.65;6.55;;;19.80;99.90;;;;;;5033485;28;20185;-85
2021/08/20 07:20:38;;;;;;;17.02;7.10;;;19.90;99.90;;;;;;5033339;28;20183;-85
2021/08/20 07:23:04;;;;;;;8.63;6.65;;;19.90;99.90;;;;;;5033084;28;20181;-86
2021/08/20 07:25:29;;;;;;;13.32;6.63;;;19.90;99.90;;;;;;5033139;28;20268;-86
2021/08/20 07:27:55;;;;;;;11.27;6.00;;;20.00;99.90;;;;;;5033006;28;20251;-86
2021/08/20 07:30:24;;;;;;;9.60;6.32;;;20.00;99.90;;;;;;5015024;28;20573;-85
2021/08/20 07:32:49;;;;;;;10.73;6.60;;;20.00;99.90;;;;;;5014914;28;20173;-85
2021/08/20 07:35:16;;;;;;;8.43;6.50;;;20.00;99.90;;;;;;5033695;28;20231;-85
2021/08/20 07:37:43;;;;;;;11.95;6.97;;;20.10;99.90;;;;;;5033724;28;20731;-84
2021/08/20 07:40:09;;;;;;;8.40;6.50;;;20.10;99.90;;;;;;5034090;28;20181;-86
2021/08/20 07:42:35;;;;;;;8.52;6.40;;;20.20;99.90;;;;;;5033717;28;20172;-84
2021/08/20 07:45:01;;;;;;;9.15;6.55;;;20.20;99.90;;;;;;5016521;28;20184;-85
2021/08/20 07:47:27;;;;;;;9.65;6.72;;;20.30;99.90;;;;;;5034072;28;20687;-86
2021/08/20 07:49:53;;;;;;;9.20;5.70;;;20.40;99.90;;;;;;5000415;28;20207;-85
2021/08/20 07:52:18;;;;;;;10.82;7.03;;;20.40;99.90;;;;;;5016550;28;20196;-85
2021/08/20 07:54:44;;;;;;;9.63;6.50;;;20.60;99.90;;;;;;5016334;28;20211;-85
2021/08/20 07:57:10;;;;;;;7.50;5.93;;;20.50;99.90;;;;;;4999718;28;20188;-85
2021/08/20 07:59:35;;;;;;;9.35;6.40;;;20.60;99.90;;;;;;5016374;28;20259;-84
2021/08/20 08:02:01;;;;;;;7.70;5.70;;;20.60;99.90;;;;;;5015682;28;20184;-84
2021/08/20 08:04:26;;;;;;;8.63;5.65;;;20.60;99.90;;;;;;4999645;28;20172;-85
2021/08/20 08:06:52;;;;;;;6.15;4.82;;;20.70;99.90;;;;;;5015960;28;20188;-87
2021/08/20 08:09:18;;;;;;;7.28;5.47;;;20.80;99.90;;;;;;5015756;28;20180;-85
2021/08/20 08:11:43;;;;;;;11.25;5.47;;;21.00;99.90;;;;;;5033226;28;20263;-84
2021/08/20 08:14:09;;;;;;;7.13;5.60;;;21.00;99.90;;;;;;4999357;28;20254;-85
2021/08/20 08:16:37;;;;;;;7.35;5.38;;;21.10;99.90;;;;;;5016007;28;20208;-86
2021/08/20 08:19:04;;;;;;;9.48;5.80;;;21.20;99.90;;;;;;5015719;28;20203;-85
2021/08/20 08:21:30;;;;;;;6.25;5.05;;;21.20;99.90;;;;;;5036234;28;20183;-84
2021/08/20 08:23:56;;;;;;;9.65;5.63;;;21.40;99.90;;;;;;5015902;28;20510;-85
2021/08/20 08:26:23;;;;;;;7.57;5.50;;;21.40;99.90;;;;;;5032401;28;20231;-85
2021/08/20 08:28:50;;;;;;;8.75;4.85;;;21.40;99.90;;;;;;5032903;28;20168;-85
2021/08/20 08:31:16;;;;;;;11.05;4.97;;;21.50;99.90;;;;;;5015183;28;20232;-86
2021/08/20 08:33:47;;;;;;;6.72;4.93;;;21.50;99.90;;;;;;5015205;28;20207;-86
2021/08/20 08:36:13;;;;;;;7.90;5.22;;;21.60;99.90;;;;;;4998871;28;20221;-86
2021/08/20 08:38:39;;;;;;;6.88;4.63;;;;;;;;;;5033210;28;20180;-85
2021/08/20 08:41:05;;;;;;;9.10;5.10;;;21.70;99.90;;;;;;4999318;28;20560;-86
2021/08/20 08:43:31;;;;;;;5.47;4.43;;;21.60;99.90;;;;;;4999343;28;20214;-85
2021/08/20 08:46:02;;;;;;;8.40;4.70;;;21.70;99.90;;;;;;5033835;28;20180;-85
2021/08/20 08:48:29;;;;;;;4.05;3.53;;;21.80;99.90;;;;;;5033546;28;20161;-86
2021/08/20 08:50:57;;;;;;;6.43;4.15;;;21.80;99.90;;;;;;5033394;28;20172;-85
2021/08/20 08:53:23;;;;;;;6.38;3.80;;;21.80;99.90;;;;;;5032836;28;20177;-85
2021/08/20 08:55:49;;;;;;;6.50;4.35;;;21.90;99.90;;;;;;5015490;28;20204;-85
2021/08/20 08:58:15;;;;;;;7.90;4.20;;;22.00;99.90;;;;;;5031773;28;20181;-85
2021/08/20 09:00:41;;;;;;;5.18;3.80;;;22.00;99.90;;;;;;5015353;28;20575;-85
2021/08/20 09:03:07;;;;;;;7.03;3.92;;;21.90;99.90;;;;;;5032253;28;20191;-86
2021/08/20 09:05:44;;;;;;;6.28;3.85;;;21.90;99.90;;;;;;5033977;28;20177;-85
2021/08/20 09:08:18;;;;;;;6.70;4.22;;;21.80;99.90;;;;;;5036207;28;20173;-87
2021/08/20 09:10:59;;;;;;;8.85;5.20;;;21.90;99.90;;;;;;5036572;28;20178;-85
2021/08/20 09:13:25;;;;;;;6.63;4.20;;;21.40;99.90;;;;;;5025016;28;20184;-86
2021/08/20 09:16:13;;;;;;;5.90;4.10;;;22.10;99.90;;;;;;5028268;28;20200;-85
2021/08/20 09:18:41;;;;;;;7.35;3.85;;;22.20;99.90;;;;;;5043273;28;20192;-86
2021/08/20 09:21:07;;;;;;;4.70;3.85;;;;;;;;;;5041757;28;20184;-87
2021/08/20 09:23:34;;;;;;;7.25;4.38;;;;;;;;;;5026679;28;20181;-87
2021/08/20 09:26:01;;;;;;;6.38;3.67;;;22.40;99.90;;;;;;5029116;28;20181;-86
2021/08/20 09:28:34;;;;;;;4.85;3.85;;;22.60;99.90;;;;;;5040986;28;20250;-88
2021/08/20 09:31:12;;;;;;;5.57;4.05;;;22.60;99.90;;;;;;5037445;28;20225;-85
2021/08/20 09:33:43;;;;;;;4.63;3.65;;;22.80;99.90;;;;;;5019284;28;20644;-84
2021/08/20 09:36:15;;;;;;;4.85;4.00;;;22.60;99.90;;;;;;5018502;28;20208;-83
2021/08/20 09:38:43;;;;;;;8.10;3.88;;;22.60;99.90;;;;;;5036733;28;20267;-86
2021/08/20 09:41:12;;;;;;;4.95;3.42;;;22.70;99.90;;;;;;5036317;28;20255;-85
2021/08/20 09:43:40;;;;;;;6.90;3.63;;;22.70;99.90;;;;;;5036193;28;20323;-84
2021/08/20 09:46:12;;;;;;;4.88;3.60;;;22.90;99.90;;;;;;5037265;28;20179;-84
2021/08/20 09:48:38;;;;;;;5.28;3.35;;;;;;;;;;5036432;28;20175;-85
2021/08/20 09:51:04;;;;;;;5.60;3.63;;;;;;;;;;5018672;28;20262;-86
2021/08/20 09:53:30;;;;;;;7.90;3.35;;;;;;;;;;5018287;28;20185;-85
2021/08/20 09:55:56;;;;;;;6.05;3.28;;;;;;;;;;5035853;28;20712;-85
2021/08/20 09:58:22;;;;;;;5.40;3.35;;;;;;;;;;5018085;28;20196;-85
2021/08/20 10:00:48;;;;;;;7.22;3.55;;;23.60;99.90;;;;;;5002518;28;20184;-87
2021/08/20 10:03:17;;;;;;;5.88;3.53;;;23.50;99.90;;;;;;5035896;28;20525;-86
2021/08/20 10:05:44;;;;;;;4.35;3.50;;;23.40;99.90;;;;;;5035961;28;20214;-85
2021/08/20 10:08:13;;;;;;;9.00;2.83;;;23.50;99.90;;;;;;5019075;28;20185;-85
2021/08/20 10:10:44;;;;;;;7.60;3.42;;;23.60;99.90;;;;;;5037239;28;20173;-87
2021/08/20 10:13:13;;;;;;;5.70;3.53;;;23.60;99.90;;;;;;5036109;28;20160;-86
2021/08/20 10:15:39;;;;;;;5.55;3.20;;;23.60;99.90;;;;;;5018123;28;20200;-85
2021/08/20 10:18:06;;;;;;;5.78;3.33;;;23.60;99.90;;;;;;5043181;28;20661;-86
2021/08/20 10:20:34;;;;;;;7.82;3.25;;;23.70;99.90;;;;;;5023824;28;20176;-86
2021/08/20 10:23:01;;;;;;;9.35;3.30;;;23.80;99.90;;;;;;5019751;28;20177;-84
2021/08/20 10:25:28;;;;;;;4.18;3.22;;;23.80;99.90;;;;;;5016229;28;20672;-84
2021/08/20 10:27:55;;;;;;;3.55;3.00;;;24.00;99.90;;;;;;5016626;28;20203;-86
2021/08/20 10:30:21;;;;;;;5.18;2.90;;;24.00;99.90;;;;;;5016177;28;20315;-85
2021/08/20 10:33:06;;;;;;;6.57;3.45;;;24.00;99.90;;;;;;5000384;28;20723;-84
2021/08/20 10:35:55;;;;;;;7.68;3.53;;;24.00;99.90;;;;;;5033909;28;20204;-86
2021/08/20 10:38:29;;;;;;;7.53;3.55;;;23.90;99.90;;;;;;5016353;28;20215;-84
2021/08/20 10:41:20;;;;;;;3.90;3.10;;;24.00;99.90;;;;;;5034516;28;20176;-86
2021/08/20 10:43:55;;;;;;;4.45;2.88;;;24.20;99.90;;;;;;5017686;28;20226;-84
2021/08/20 10:46:33;;;;;;;5.85;3.10;;;24.30;99.90;;;;;;5034937;28;20191;-85
2021/08/20 10:49:15;;;;;;;7.47;3.13;;;24.30;99.90;;;;;;5017122;28;20218;-86
2021/08/20 10:51:53;;;;;;;8.38;3.35;;;24.50;99.90;;;;;;5034650;28;20179;-86
2021/08/20 10:54:26;;;;;;;4.65;3.00;;;24.50;99.90;;;;;;5034477;28;20526;-85
2021/08/20 10:56:52;;;;;;;5.72;3.42;;;24.50;99.90;;;;;;5017307;28;20552;-84
2021/08/20 10:59:36;;;;;;;4.78;3.85;;;24.60;99.90;;;;;;5034593;28;20191;-84
2021/08/20 11:02:23;;;;;;;4.80;3.17;;;24.70;99.90;;;;;;5034714;28;20181;-85
2021/08/20 11:04:58;;;;;;;3.75;3.35;;;24.50;99.90;;;;;;5033758;28;20180;-84
2021/08/20 11:07:36;;;;;;;6.18;3.38;;;24.60;99.90;;;;;;5016471;28;20176;-85
2021/08/20 11:10:08;;;;;;;4.07;3.20;;;24.60;99.90;;;;;;5016712;28;20180;-85
2021/08/20 11:12:53;;;;;;;8.27;3.40;;;24.40;99.90;;;;;;5016336;28;20195;-86
2021/08/20 11:15:21;;;;;;;4.90;3.45;;;24.50;99.90;;;;;;5016923;28;20216;-85
2021/08/20 11:17:53;;;;;;;4.22;3.80;;;24.40;99.90;;;;;;5034825;28;20177;-85
2021/08/20 11:20:38;;;;;;;4.20;3.45;;;24.30;99.90;;;;;;5017341;28;20638;-85
2021/08/20 11:23:12;;;;;;;6.20;4.18;;;24.50;99.90;;;;;;5016833;28;20560;-86
2021/08/20 11:25:48;;;;;;;4.78;3.08;;;24.50;99.90;;;;;;5016443;28;20239;-86
2021/08/20 11:28:19;;;;;;;4.22;3.33;;;24.50;99.90;;;;;;5016443;28;20178;-87
2021/08/20 11:31:03;;;;;;;5.28;3.42;;;24.60;99.90;;;;;;5033306;28;20224;-87
2021/08/20 11:33:28;;;;;;;5.28;3.65;;;24.60;99.90;;;;;;5033044;28;20188;-86
2021/08/20 11:36:00;;;;;;;7.57;4.03;;;24.80;99.90;;;;;;5032896;28;20197;-87
2021/08/20 11:38:47;;;;;;;5.57;3.72;;;24.70;99.90;;;;;;5033178;28;20168;-85
2021/08/20 11:41:26;;;;;;;6.03;3.35;;;24.70;99.90;;;;;;5015570;28;20199;-86
2021/08/20 11:44:00;;;;;;;5.80;3.28;;;24.70;99.90;;;;;;5033322;28;20251;-85
2021/08/20 11:46:30;;;;;;;6.45;3.78;;;24.80;99.90;;;;;;5033077;28;20179;-86
2021/08/20 11:48:57;;;;;;;3.95;3.35;;;25.00;99.90;;;;;;5015431;28;20176;-87
2021/08/20 11:51:27;;;;;;;5.75;3.75;;;25.10;99.90;;;;;;5015519;28;20173;-90
2021/08/20 11:53:55;;;;;;;7.18;3.42;;;25.00;99.90;;;;;;5016482;28;20266;-92
2021/08/20 11:56:21;;;;;;;5.13;3.40;;;;;;;;;;5015306;28;20266;-86
2021/08/20 11:58:47;;;;;;;4.75;3.70;;;25.20;99.90;;;;;;5033018;28;20179;-85
2021/08/20 12:01:25;;;;;;;4.97;3.95;;;24.90;99.90;;;;;;5033356;28;20259;-88
2021/08/20 12:03:56;;;;;;;8.02;3.70;;;24.80;99.90;;;;;;5033053;28;20622;-88
2021/08/20 12:06:23;;;;;;;7.07;3.72;;;24.40;99.90;;;;;;5015764;28;20279;-89
2021/08/20 12:08:50;;;;;;;7.90;3.72;;;24.20;99.90;;;;;;5035843;28;20622;-89
2021/08/20 12:11:21;;;;;;;7.78;4.07;;;24.10;99.90;;;;;;5020666;28;20176;-90
2021/08/20 12:13:48;;;;;;;4.45;3.90;;;24.00;99.90;;;;;;5039191;28;20160;-88
2021/08/20 12:16:45;;;;;;;5.72;4.00;;;24.00;99.90;;;;;;5035093;28;20708;-88
2021/08/20 12:19:21;;;;;;;6.82;4.07;;;24.00;99.90;;;;;;5015793;28;20188;-89
2021/08/20 12:21:52;;;;;;;4.43;3.60;;;24.00;99.90;;;;;;5015887;28;20603;-89
2021/08/20 12:24:36;;;;;;;5.72;4.03;;;23.90;99.90;;;;;;5018012;28;20172;-89
2021/08/20 12:27:25;;;;;;;5.82;4.78;;;23.90;99.90;;;;;;5034432;28;20190;-89
2021/08/20 12:29:59;;;;;;;4.43;3.67;;;23.80;99.90;;;;;;5038591;28;20505;-90
2021/08/20 12:32:27;;;;;;;5.68;4.05;;;23.80;99.90;;;;;;5017181;28;20191;-88
2021/08/20 12:35:04;;;;;;;5.88;4.07;;;23.80;99.90;;;;;;5015606;28;20230;-88
2021/08/20 12:37:32;;;;;;;5.60;4.10;;;23.80;99.90;;;;;;5033572;28;20176;-88
2021/08/20 12:40:11;;;;;;;7.20;4.68;;;23.70;99.90;;;;;;4999401;28;20574;-90
2021/08/20 12:42:48;;;;;;;4.53;4.05;;;23.60;99.90;;;;;;5034548;28;20176;-89
2021/08/20 12:45:16;;;;;;;6.38;4.20;;;23.60;99.90;;;;;;5035807;28;20180;-89
2021/08/20 12:48:07;;;;;;;7.95;4.45;;;23.50;99.90;;;;;;5034813;28;20184;-89
2021/08/20 12:50:35;;;;;;;11.15;4.28;;;23.10;99.90;;;;;;5018756;28;20279;-88
2021/08/20 12:53:05;;;;;;;6.32;4.30;;;23.60;99.90;;;;;;5020983;28;20695;-89
2021/08/20 12:55:40;;;;;;;5.82;4.55;;;23.60;99.90;;;;;;5002160;28;20208;-88
2021/08/20 12:58:07;;;;;;;8.35;3.88;;;23.60;99.90;;;;;;5001487;28;20283;-89
2021/08/20 13:00:41;;;;;;;7.65;4.28;;;23.60;99.90;;;;;;5035724;28;20223;-89
2021/08/20 13:03:09;;;;;;;6.45;4.25;;;23.70;99.90;;;;;;5037175;28;20169;-90
2021/08/20 13:05:35;;;;;;;5.95;4.25;;;;;;;;;;5019378;28;20259;-89